Agadez, Niger

10:36 AM WAT on September 04, 2015 (GMT +0100)
Manu Dayak | | Change Station
CLOSE
Current Station
Airport
Location: Agadez,
Elevation: 1647 ft
Nearby Weather Stations

Elev 1647 ft 16.97 °N, 7.98 °E | Updated 36 minutes ago

Clear
Clear
91 °F
Feels Like 98 °F
N
12
Wind Variable Wind from WNW

Today
High -- | Low -- °F
--% Chance of Precip.
Yesterday
High -- | Low -- °F
Precip. -- in
6:14 AM 6:39 PM
Waning Gibbous, 61% visible
Pressure 30.04 in
Visibility -9999.0 miles
Clouds
Heat Index 98 °F
Dew Point 72 °F
Humidity 52%
Rainfall 0.00 in
Snow Depth Not available.
UV Not available.
Pollen Not available.
Air Quality Not available.
Flu Activity Not available.
METAR DRZA 040900Z 30010KT CAVOK 33/22 Q1017
Pressure 30.04 in
Visibility -9999.0 miles
Clouds
Heat Index 98 °F
Dew Point 72 °F
Humidity 52%
Rainfall 0.00 in
Snow Depth Not available.
UV Not available.
Pollen Not available.
Air Quality Not available.
Flu Activity Not available.
METAR DRZA 040900Z 30010KT CAVOK 33/22 Q1017

10-Day Weather Forecast

×

Almanac

Astronomy

Sep. 04, 2015 Rise Set
Actual Time
Civil Twilight
Nautical Twilight
Astronomical Twilight
Moon
Length of Visible Light
Length of Day
Tomorrow will be .
, % of the Moon is Illuminated

Today's Extremes

Country Highs Country Lows

Community

WunderPhotos

Upload Photos

1,852,142 photos uploaded!

WunderBlogs® & News

Nearby

Air Quality

  Air Quality AQ Index Pollutant
Not available.

Snow Depth

Station Depth Elevation

Earthquake Activity

City Distance Mag. Time & Date
Minimum magnitude displayed is 2.5.

Coastal Water Temperatures

Place Temperature

Stations

Nearby Weather Stations

Station Location Temp. Windchill Dew Point Humidity Wind Precip. Elev Updated Type